createdAt,value
2022-09-21T00:01:31.066Z,47.94
2022-09-21T00:04:01.411Z,46.76
2022-09-21T00:06:32.217Z,46.82
2022-09-21T00:08:59.801Z,45.95
2022-09-21T00:11:30.886Z,46.71
2022-09-21T00:14:01.159Z,46.78
2022-09-21T00:16:29.836Z,46.15
2022-09-21T00:18:57.304Z,45.83
2022-09-21T00:21:24.741Z,46.14
2022-09-21T00:23:52.253Z,46.31
2022-09-21T00:26:22.274Z,47.25
2022-09-21T00:28:55.076Z,47.54
2022-09-21T00:31:23.087Z,46.58
2022-09-21T00:33:51.535Z,47.22
2022-09-21T00:36:21.990Z,47.34
2022-09-21T00:38:57.806Z,47.30
2022-09-21T00:41:27.168Z,46.94
2022-09-21T00:44:16.330Z,47.71
2022-09-21T00:46:45.410Z,46.90
2022-09-21T00:49:13.858Z,47.05
2022-09-21T00:51:42.406Z,47.05
2022-09-21T00:54:17.390Z,47.69
2022-09-21T00:56:45.749Z,47.05
2022-09-21T00:59:20.994Z,47.54
2022-09-21T01:01:49.650Z,46.97
2022-09-21T01:04:19.150Z,46.50
2022-09-21T01:06:48.147Z,46.81
2022-09-21T01:09:18.065Z,47.15
2022-09-21T01:11:48.423Z,47.01
2022-09-21T01:14:34.069Z,48.01
2022-09-21T01:17:22.286Z,48.31
2022-09-21T01:20:19.063Z,48.06
2022-09-21T01:23:16.445Z,48.40
2022-09-21T01:26:11.725Z,48.16
2022-09-21T01:29:13.141Z,47.77
2022-09-21T01:31:43.829Z,46.27
2022-09-21T01:34:21.036Z,46.49
2022-09-21T01:36:51.359Z,45.23
2022-09-21T01:39:21.590Z,45.36
2022-09-21T01:41:52.426Z,45.04
2022-09-21T01:44:24.871Z,46.12
2022-09-21T01:46:53.567Z,45.36
2022-09-21T01:49:27.579Z,46.26
2022-09-21T01:52:05.878Z,46.45
2022-09-21T01:54:40.043Z,46.19
2022-09-21T01:57:21.215Z,47.03
2022-09-21T02:00:00.786Z,46.87
2022-09-21T02:02:45.366Z,48.00
2022-09-21T02:05:14.282Z,46.65
2022-09-21T02:07:42.120Z,46.77
2022-09-21T02:10:18.042Z,48.17
2022-09-21T02:12:46.675Z,47.13
2022-09-21T02:15:14.230Z,46.81
2022-09-21T02:18:05.103Z,48.30
2022-09-21T02:20:38.538Z,48.56
2022-09-21T02:23:25.465Z,48.41
2022-09-21T02:25:57.837Z,48.12
2022-09-21T02:28:28.271Z,47.86
2022-09-21T02:31:14.129Z,49.56
2022-09-21T02:33:49.442Z,49.45
2022-09-21T02:36:35.884Z,49.33
2022-09-21T02:39:38.485Z,48.75
2022-09-21T02:42:28.458Z,49.21
2022-09-21T02:45:10.134Z,50.03
2022-09-21T02:47:47.986Z,49.91
2022-09-21T02:50:33.209Z,50.26
2022-09-21T02:53:04.141Z,49.43
2022-09-21T02:55:33.632Z,48.96
2022-09-21T02:58:05.829Z,49.45
2022-09-21T03:00:35.610Z,49.30
2022-09-21T03:03:18.701Z,50.08
2022-09-21T03:05:47.574Z,47.91
2022-09-21T03:08:16.245Z,48.24
2022-09-21T03:10:44.343Z,48.13
2022-09-21T03:13:12.221Z,48.19
2022-09-21T03:15:41.150Z,48.66
2022-09-21T03:18:10.718Z,48.76
2022-09-21T03:20:47.354Z,49.63
2022-09-21T03:23:15.147Z,48.82
2022-09-21T03:25:45.863Z,49.46
2022-09-21T03:28:14.935Z,47.98
2022-09-21T03:30:43.457Z,47.51
2022-09-21T03:33:11.664Z,47.51
2022-09-21T03:35:39.790Z,47.96
2022-09-21T03:38:07.217Z,47.77
2022-09-21T03:40:35.187Z,47.87
2022-09-21T03:43:02.794Z,47.97
2022-09-21T03:45:30.207Z,48.04
2022-09-21T03:47:58.647Z,48.15
2022-09-21T03:50:30.826Z,48.21
2022-09-21T03:52:58.475Z,47.79
2022-09-21T03:55:26.786Z,48.10
2022-09-21T03:57:54.213Z,47.80
2022-09-21T04:00:22.148Z,47.61
2022-09-21T04:02:49.653Z,47.57
2022-09-21T04:05:17.838Z,47.43
2022-09-21T04:07:48.490Z,47.95
2022-09-21T04:10:18.740Z,47.71
2022-09-21T04:12:47.260Z,47.25
2022-09-21T04:15:18.154Z,47.89
2022-09-21T04:17:46.797Z,47.73
2022-09-21T04:20:14.177Z,47.41
2022-09-21T04:22:43.738Z,47.86
2022-09-21T04:25:13.084Z,48.20
2022-09-21T04:27:41.322Z,48.43
2022-09-21T04:30:10.486Z,48.52
2022-09-21T04:32:37.950Z,48.79
2022-09-21T04:35:06.302Z,48.59
2022-09-21T04:37:34.095Z,48.56
2022-09-21T04:40:01.813Z,48.40
2022-09-21T04:42:31.585Z,48.37
2022-09-21T04:44:59.029Z,48.05
2022-09-21T04:47:26.783Z,48.02
2022-09-21T04:49:54.188Z,47.61
2022-09-21T04:52:21.570Z,47.47
2022-09-21T04:54:49.001Z,47.46
2022-09-21T04:57:16.818Z,47.31
2022-09-21T04:59:44.155Z,46.67
2022-09-21T05:02:11.691Z,45.74
2022-09-21T05:04:39.074Z,44.66
2022-09-21T05:07:06.875Z,43.93
2022-09-21T05:09:52.718Z,43.83
2022-09-21T05:12:20.447Z,43.66
2022-09-21T05:14:48.049Z,43.59
2022-09-21T05:17:15.542Z,43.17
2022-09-21T05:19:42.993Z,42.95
2022-09-21T05:22:10.360Z,43.35
2022-09-21T05:24:37.709Z,43.50
2022-09-21T05:27:05.298Z,42.39
2022-09-21T05:29:33.161Z,41.71
2022-09-21T05:32:18.818Z,40.96
2022-09-21T05:35:08.106Z,41.04
2022-09-21T05:37:48.685Z,40.77
2022-09-21T05:40:16.849Z,40.53
2022-09-21T05:42:44.768Z,40.36
2022-09-21T05:45:19.645Z,39.89
2022-09-21T05:47:46.982Z,39.58
2022-09-21T05:50:45.265Z,39.64
2022-09-21T05:53:22.300Z,39.66
2022-09-21T05:55:58.829Z,39.44
2022-09-21T05:58:57.424Z,39.53
2022-09-21T06:01:27.762Z,39.44
2022-09-21T06:03:57.002Z,39.02
2022-09-21T06:06:24.489Z,38.78
2022-09-21T06:08:52.087Z,38.73
2022-09-21T06:11:20.270Z,38.30
2022-09-21T06:13:47.704Z,38.93
2022-09-21T06:16:15.139Z,38.96
2022-09-21T06:18:42.720Z,37.45
2022-09-21T06:21:10.623Z,36.42
2022-09-21T06:23:38.909Z,35.41
2022-09-21T06:26:06.581Z,33.79
2022-09-21T06:28:34.098Z,33.38
2022-09-21T06:31:01.551Z,32.35
2022-09-21T06:33:29.175Z,31.47
2022-09-21T06:36:00.767Z,30.44
2022-09-21T06:38:29.357Z,29.35
2022-09-21T06:41:03.161Z,28.40
2022-09-21T06:43:31.745Z,28.06
2022-09-21T06:46:01.031Z,27.58
2022-09-21T06:48:30.002Z,27.50
2022-09-21T06:51:01.930Z,26.38
2022-09-21T06:53:31.008Z,25.69
2022-09-21T06:56:03.516Z,25.57
2022-09-21T06:58:32.370Z,24.97
2022-09-21T07:01:04.281Z,24.61
2022-09-21T07:03:32.228Z,24.19
2022-09-21T07:05:59.683Z,24.14
2022-09-21T07:11:15.210Z,24.20
2022-09-21T07:13:42.817Z,23.57
2022-09-21T07:16:10.439Z,23.29
2022-09-21T07:18:43.395Z,22.78
2022-09-21T07:21:12.356Z,23.02
2022-09-21T07:23:39.816Z,23.06
2022-09-21T07:26:09.760Z,23.32
2022-09-21T07:28:37.184Z,23.59
2022-09-21T07:31:14.304Z,24.18
2022-09-21T07:33:43.206Z,23.72
2022-09-21T07:36:11.523Z,23.23
2022-09-21T07:38:43.972Z,23.01
2022-09-21T07:41:13.927Z,23.62
2022-09-21T07:43:41.862Z,23.85
2022-09-21T07:46:11.801Z,23.29
2022-09-21T07:48:39.625Z,23.20
2022-09-21T07:51:10.357Z,23.47
2022-09-21T07:53:39.918Z,23.29
2022-09-21T07:56:10.458Z,23.35
2022-09-21T07:58:57.195Z,23.20
2022-09-21T08:01:26.056Z,23.50
2022-09-21T08:03:55.986Z,24.16
2022-09-21T08:06:25.823Z,24.23
2022-09-21T08:08:57.507Z,24.08
2022-09-21T08:11:27.569Z,24.72
2022-09-21T08:13:59.065Z,24.72
2022-09-21T08:16:27.410Z,25.04
2022-09-21T08:18:55.354Z,25.33
2022-09-21T08:21:22.815Z,25.33
2022-09-21T08:23:50.502Z,25.48
2022-09-21T08:26:20.841Z,25.89
2022-09-21T08:28:50.306Z,26.39
2022-09-21T08:31:19.929Z,26.35
2022-09-21T08:33:48.282Z,26.49
2022-09-21T08:36:16.230Z,27.50
2022-09-21T08:38:43.682Z,27.42
2022-09-21T08:41:22.911Z,28.17
2022-09-21T08:44:10.541Z,28.39
2022-09-21T08:46:39.210Z,28.70
2022-09-21T08:49:17.390Z,29.01
2022-09-21T08:52:02.645Z,28.70
2022-09-21T08:54:36.384Z,28.94
2022-09-21T08:57:05.959Z,28.83
2022-09-21T08:59:35.449Z,29.03
2022-09-21T09:02:40.529Z,28.90
2022-09-21T09:05:20.458Z,29.01
2022-09-21T09:08:06.447Z,29.43
2022-09-21T09:10:38.538Z,29.05
2022-09-21T09:13:24.335Z,29.03
2022-09-21T09:16:26.492Z,29.61
2022-09-21T09:19:00.251Z,29.82
2022-09-21T09:21:41.003Z,29.93
2022-09-21T09:24:37.758Z,29.96
2022-09-21T09:27:15.594Z,30.25
2022-09-21T09:29:47.246Z,29.98
2022-09-21T09:32:17.712Z,30.62
2022-09-21T09:35:15.227Z,30.25
2022-09-21T09:37:44.571Z,30.53
2022-09-21T09:40:14.845Z,30.26
2022-09-21T09:42:51.537Z,30.21
2022-09-21T09:45:26.339Z,31.02
2022-09-21T09:48:23.632Z,30.71
2022-09-21T09:50:51.064Z,30.40
2022-09-21T09:53:22.776Z,30.84
2022-09-21T09:55:52.701Z,31.19
2022-09-21T09:58:39.610Z,31.06
2022-09-21T10:01:07.141Z,31.41
2022-09-21T10:03:34.993Z,31.45
2022-09-21T10:06:02.747Z,31.47
2022-09-21T10:08:46.687Z,31.66
2022-09-21T10:11:15.986Z,32.19
2022-09-21T10:13:46.599Z,32.04
2022-09-21T10:16:14.220Z,32.15
2022-09-21T10:19:15.202Z,31.66
2022-09-21T10:21:51.885Z,32.23
2022-09-21T10:24:27.150Z,31.73
2022-09-21T10:27:06.688Z,32.52
2022-09-21T10:29:46.390Z,33.20
2022-09-21T10:32:15.320Z,33.09
2022-09-21T10:35:00.237Z,33.59
2022-09-21T10:37:37.966Z,33.52
2022-09-21T10:40:16.173Z,33.03
2022-09-21T10:42:44.332Z,33.25
2022-09-21T10:45:29.495Z,33.35
2022-09-21T10:48:16.008Z,33.45
2022-09-21T10:50:52.641Z,33.68
2022-09-21T10:53:37.369Z,33.96
2022-09-21T10:56:17.752Z,34.19
2022-09-21T10:59:33.512Z,33.44
2022-09-21T11:02:02.675Z,33.89
2022-09-21T11:04:42.245Z,34.26
2022-09-21T11:07:40.279Z,34.14
2022-09-21T11:10:19.231Z,33.92
2022-09-21T11:12:49.681Z,34.18
2022-09-21T11:15:35.682Z,34.36
2022-09-21T11:18:27.757Z,34.08
2022-09-21T11:21:24.403Z,34.14
2022-09-21T11:24:28.878Z,33.95
2022-09-21T11:27:28.486Z,34.50
2022-09-21T11:30:05.129Z,34.81
2022-09-21T11:32:43.474Z,35.09
2022-09-21T11:35:35.198Z,34.95
2022-09-21T11:38:14.622Z,35.42
2022-09-21T11:41:07.040Z,35.28
2022-09-21T11:43:42.090Z,34.98
2022-09-21T11:46:16.257Z,35.81
2022-09-21T11:49:04.992Z,35.99
2022-09-21T11:51:38.629Z,35.08
2022-09-21T11:54:45.007Z,35.33
2022-09-21T11:57:17.239Z,35.63
2022-09-21T12:00:02.952Z,35.99
2022-09-21T12:02:54.084Z,35.98
2022-09-21T12:05:29.637Z,36.76
2022-09-21T12:08:02.971Z,36.21
2022-09-21T12:10:53.764Z,37.01
2022-09-21T12:13:24.040Z,36.58
2022-09-21T12:16:17.144Z,36.84
2022-09-21T12:19:07.559Z,36.58
2022-09-21T12:21:41.894Z,37.01
2022-09-21T12:24:23.114Z,36.38
2022-09-21T12:27:01.940Z,37.49
2022-09-21T12:29:37.445Z,37.25
2022-09-21T12:32:22.266Z,36.97
2022-09-21T12:34:55.054Z,37.09
2022-09-21T12:37:40.743Z,36.86
2022-09-21T12:40:25.449Z,37.30
2022-09-21T12:43:03.586Z,37.00
2022-09-21T12:45:36.841Z,37.30
2022-09-21T12:48:08.034Z,35.75
2022-09-21T12:50:48.673Z,37.24
2022-09-21T12:53:27.530Z,37.74
2022-09-21T12:56:11.308Z,37.77
2022-09-21T12:58:51.066Z,37.61
2022-09-21T13:01:36.712Z,37.42
2022-09-21T13:04:50.139Z,37.67
2022-09-21T13:07:46.215Z,36.98
2022-09-21T13:10:19.003Z,37.55
2022-09-21T13:12:54.723Z,38.26
2022-09-21T13:15:31.963Z,38.72
2022-09-21T13:18:17.112Z,38.81
2022-09-21T13:20:45.433Z,38.23
2022-09-21T13:23:24.934Z,39.01
2022-09-21T13:26:06.257Z,38.71
2022-09-21T13:28:41.800Z,38.98
2022-09-21T13:31:40.334Z,39.11
2022-09-21T13:34:22.224Z,39.43
2022-09-21T13:37:08.692Z,38.77
2022-09-21T13:39:36.193Z,39.30
2022-09-21T13:42:37.429Z,39.23
2022-09-21T13:45:19.323Z,40.22
2022-09-21T13:47:50.997Z,39.86
2022-09-21T13:50:30.341Z,40.62
2022-09-21T13:53:06.394Z,40.85
2022-09-21T13:55:38.604Z,40.09
2022-09-21T13:58:28.169Z,40.35
2022-09-21T14:01:03.423Z,40.67
2022-09-21T14:03:46.581Z,41.14
2022-09-21T14:06:24.176Z,40.92
2022-09-21T14:08:55.080Z,40.15
2022-09-21T14:11:35.847Z,41.99
2022-09-21T14:14:15.779Z,41.66
2022-09-21T14:16:45.381Z,40.56
2022-09-21T14:19:15.930Z,41.63
2022-09-21T14:22:05.815Z,41.64
2022-09-21T14:25:02.395Z,42.29
2022-09-21T14:27:47.882Z,41.84
2022-09-21T14:30:18.255Z,41.50
2022-09-21T14:32:49.457Z,41.82
2022-09-21T14:35:20.644Z,42.26
2022-09-21T14:38:00.444Z,42.22
2022-09-21T14:40:39.337Z,42.11
2022-09-21T14:43:16.460Z,42.20
2022-09-21T14:46:08.859Z,42.51
2022-09-21T14:48:54.961Z,42.45
2022-09-21T14:52:04.349Z,42.65
2022-09-21T14:54:46.253Z,41.57
2022-09-21T14:57:35.396Z,40.19
2022-09-21T15:00:14.691Z,43.25
2022-09-21T15:02:45.066Z,43.18
2022-09-21T15:05:30.942Z,42.37
2022-09-21T15:08:54.066Z,43.93
2022-09-21T15:11:21.476Z,42.99
2022-09-21T15:14:14.117Z,44.10
2022-09-21T15:16:50.603Z,44.25
2022-09-21T15:19:29.310Z,44.82
2022-09-21T15:22:09.930Z,43.85
2022-09-21T15:24:37.739Z,43.52
2022-09-21T15:27:10.496Z,44.54
2022-09-21T15:29:39.453Z,43.79
2022-09-21T15:32:07.708Z,44.00
2022-09-21T15:34:35.140Z,44.19
2022-09-21T15:37:15.933Z,45.62
2022-09-21T15:39:43.431Z,44.00
2022-09-21T15:42:10.909Z,44.40
2022-09-21T15:44:39.712Z,44.91
2022-09-21T15:47:12.715Z,45.52
2022-09-21T15:49:41.529Z,45.08
2022-09-21T15:52:15.165Z,46.32
2022-09-21T15:54:52.582Z,46.09
2022-09-21T15:57:25.742Z,46.53
2022-09-21T15:59:54.261Z,45.64
2022-09-21T16:02:26.636Z,46.75
2022-09-21T16:04:54.279Z,45.90
2022-09-21T16:07:31.585Z,47.88
2022-09-21T16:09:59.714Z,46.21
2022-09-21T16:12:30.088Z,46.04
2022-09-21T16:15:32.531Z,47.97
2022-09-21T16:18:07.184Z,47.98
2022-09-21T16:20:48.146Z,48.11
2022-09-21T16:23:23.494Z,47.54
2022-09-21T16:26:01.042Z,48.90
2022-09-21T16:28:36.192Z,46.84
2022-09-21T16:31:30.254Z,47.93
2022-09-21T16:34:05.243Z,47.77
2022-09-21T16:36:39.344Z,49.04
2022-09-21T16:39:14.990Z,48.23
2022-09-21T16:41:52.693Z,48.62
2022-09-21T16:44:23.150Z,47.80
2022-09-21T16:46:59.402Z,48.17
2022-09-21T16:49:31.501Z,47.81
2022-09-21T16:52:00.278Z,47.56
2022-09-21T16:54:28.896Z,47.63
2022-09-21T16:56:59.751Z,48.37
2022-09-21T16:59:28.197Z,47.95
2022-09-21T17:01:58.028Z,48.70
2022-09-21T17:04:30.700Z,49.04
2022-09-21T17:06:58.763Z,47.68
2022-09-21T17:09:31.620Z,48.32
2022-09-21T17:12:01.655Z,48.17
2022-09-21T17:14:35.754Z,47.78
2022-09-21T17:17:18.830Z,48.96
2022-09-21T17:19:47.291Z,46.68
2022-09-21T17:22:17.577Z,47.39
2022-09-21T17:24:52.835Z,48.65
2022-09-21T17:27:22.912Z,47.84
2022-09-21T17:29:51.127Z,47.92
2022-09-21T17:32:21.478Z,48.48
2022-09-21T17:35:15.771Z,49.67
2022-09-21T17:37:43.805Z,48.34
2022-09-21T17:40:12.417Z,49.00
2022-09-21T17:42:42.452Z,49.14
2022-09-21T17:45:18.346Z,50.13
2022-09-21T17:47:46.200Z,48.58
2022-09-21T17:50:13.714Z,48.86
2022-09-21T17:53:03.139Z,49.51
2022-09-21T17:55:31.038Z,48.59
2022-09-21T17:58:26.374Z,50.55
2022-09-21T18:01:04.634Z,49.97
2022-09-21T18:03:36.270Z,49.53
2022-09-21T18:06:04.440Z,48.75
2022-09-21T18:08:34.215Z,49.98
2022-09-21T18:11:25.332Z,50.35
2022-09-21T18:14:11.386Z,49.07
2022-09-21T18:16:44.973Z,50.89
2022-09-21T18:19:34.075Z,50.38
2022-09-21T18:22:31.816Z,50.90
2022-09-21T18:25:00.953Z,49.19
2022-09-21T18:27:30.763Z,49.36
2022-09-21T18:29:58.463Z,49.59
2022-09-21T18:32:41.366Z,51.87
2022-09-21T18:35:11.696Z,48.97
2022-09-21T18:38:00.365Z,51.01
2022-09-21T18:40:41.423Z,50.25
2022-09-21T18:43:34.412Z,51.45
2022-09-21T18:46:32.441Z,51.19
2022-09-21T18:49:12.384Z,51.65
2022-09-21T18:52:17.567Z,51.02
2022-09-21T18:54:45.430Z,49.26
2022-09-21T18:57:14.774Z,50.08
2022-09-21T18:59:42.902Z,50.16
2022-09-21T19:02:16.444Z,51.29
2022-09-21T19:04:45.303Z,50.58
2022-09-21T19:07:22.148Z,51.38
2022-09-21T19:10:08.130Z,51.33
2022-09-21T19:13:05.017Z,51.19
2022-09-21T19:16:01.354Z,50.97
2022-09-21T19:18:53.129Z,51.41
2022-09-21T19:21:50.146Z,51.43
2022-09-21T19:24:31.858Z,50.88
2022-09-21T19:27:26.105Z,51.60
2022-09-21T19:30:12.340Z,51.86
2022-09-21T19:32:47.401Z,51.50
2022-09-21T19:35:24.089Z,51.69
2022-09-21T19:37:53.971Z,50.36
2022-09-21T19:40:24.761Z,50.86
2022-09-21T19:42:59.629Z,51.87
2022-09-21T19:45:48.379Z,51.83
2022-09-21T19:48:17.122Z,50.65
2022-09-21T19:50:49.926Z,50.24
2022-09-21T19:53:35.817Z,50.51
2022-09-21T19:56:27.446Z,50.33
2022-09-21T19:59:13.539Z,50.34
2022-09-21T20:01:45.636Z,50.37
2022-09-21T20:04:15.838Z,51.64
2022-09-21T20:06:51.804Z,51.32
2022-09-21T20:09:22.148Z,51.80
2022-09-21T20:12:07.886Z,52.77
2022-09-21T20:14:57.939Z,52.55
2022-09-21T20:17:40.613Z,52.05
2022-09-21T20:20:19.765Z,50.83
2022-09-21T20:22:47.411Z,50.74
2022-09-21T20:25:30.670Z,50.66
2022-09-21T20:27:58.803Z,51.07
2022-09-21T20:30:32.942Z,52.08
2022-09-21T20:33:07.058Z,51.67
2022-09-21T20:35:35.055Z,50.95
2022-09-21T20:38:03.307Z,51.29
2022-09-21T20:40:50.070Z,50.98
2022-09-21T20:43:18.375Z,50.94
2022-09-21T20:45:49.622Z,51.67
2022-09-21T20:48:17.466Z,51.18
2022-09-21T20:50:49.026Z,51.79
2022-09-21T20:53:19.374Z,51.10
2022-09-21T20:56:02.193Z,52.88
2022-09-21T20:58:33.801Z,52.34
2022-09-21T21:01:08.983Z,52.50
2022-09-21T21:03:36.666Z,50.89
2022-09-21T21:06:12.009Z,52.80
2022-09-21T21:08:39.661Z,51.66
2022-09-21T21:11:07.407Z,51.65
2022-09-21T21:13:34.822Z,51.79
2022-09-21T21:16:09.492Z,52.35
2022-09-21T21:18:40.558Z,52.40
2022-09-21T21:21:08.223Z,52.36
2022-09-21T21:23:54.163Z,52.29
2022-09-21T21:26:33.368Z,52.41
2022-09-21T21:29:09.317Z,52.85
2022-09-21T21:31:36.931Z,52.73
2022-09-21T21:34:04.370Z,52.84
2022-09-21T21:36:32.298Z,52.95
2022-09-21T21:39:00.034Z,52.87
2022-09-21T21:41:27.976Z,53.10
2022-09-21T21:43:55.415Z,53.58
2022-09-21T21:46:22.988Z,53.31
2022-09-21T21:48:50.509Z,53.43
2022-09-21T21:51:18.300Z,53.39
2022-09-21T21:53:45.907Z,53.70
2022-09-21T21:56:15.911Z,54.41
2022-09-21T21:58:44.010Z,53.78
2022-09-21T22:01:21.625Z,55.12
2022-09-21T22:03:53.876Z,55.38
2022-09-21T22:06:21.931Z,53.61
2022-09-21T22:08:50.178Z,53.67
2022-09-21T22:11:18.007Z,53.58
2022-09-21T22:13:46.417Z,53.93
2022-09-21T22:16:19.305Z,55.32
2022-09-21T22:18:47.033Z,54.33
2022-09-21T22:21:17.678Z,55.48
2022-09-21T22:23:45.185Z,54.75
2022-09-21T22:26:17.163Z,56.38
2022-09-21T22:32:42.161Z,54.48
2022-09-21T22:35:09.655Z,54.66
2022-09-21T22:37:37.087Z,54.77
2022-09-21T22:40:05.062Z,54.95
2022-09-21T22:42:32.503Z,55.39
2022-09-21T22:44:59.922Z,55.27
2022-09-21T22:47:27.410Z,55.90
2022-09-21T22:49:56.122Z,56.29
2022-09-21T22:52:23.488Z,56.91
2022-09-21T22:54:50.879Z,56.60
2022-09-21T22:57:18.374Z,56.55
2022-09-21T22:59:45.767Z,56.75
2022-09-21T23:02:13.251Z,57.26
2022-09-21T23:04:40.991Z,56.87
2022-09-21T23:07:08.366Z,56.87
2022-09-21T23:09:35.762Z,56.84
2022-09-21T23:12:03.329Z,56.61
2022-09-21T23:14:30.673Z,56.40
2022-09-21T23:16:58.205Z,55.95
2022-09-21T23:19:25.584Z,55.67
2022-09-21T23:21:53.349Z,55.50
2022-09-21T23:24:21.117Z,55.64
2022-09-21T23:26:50.736Z,55.52
2022-09-21T23:29:18.237Z,55.56
2022-09-21T23:31:46.379Z,55.77
2022-09-21T23:34:15.014Z,56.36
2022-09-21T23:36:43.823Z,56.27
2022-09-21T23:39:13.258Z,56.62
2022-09-21T23:41:40.800Z,56.84
2022-09-21T23:44:08.532Z,56.04
2022-09-21T23:46:38.196Z,56.44
2022-09-21T23:49:06.523Z,56.24
2022-09-21T23:51:34.947Z,56.13
2022-09-21T23:54:02.524Z,55.32
2022-09-21T23:56:31.313Z,55.67
2022-09-21T23:58:59.626Z,55.52
